sensor_id;sensor_type;location;lat;lon;timestamp;P1;durP1;ratioP1;P2;durP2;ratioP2
47715;SDS011;33476;50.984;3.538;2024-01-10T00:00:34;9.82;;;2.58;;
47715;SDS011;33476;50.984;3.538;2024-01-10T00:03:02;8.68;;;3.47;;
47715;SDS011;33476;50.984;3.538;2024-01-10T00:05:28;7.47;;;3.40;;
47715;SDS011;33476;50.984;3.538;2024-01-10T00:07:53;9.40;;;4.07;;
47715;SDS011;33476;50.984;3.538;2024-01-10T00:10:19;7.25;;;3.40;;
47715;SDS011;33476;50.984;3.538;2024-01-10T00:12:46;8.13;;;3.50;;
47715;SDS011;33476;50.984;3.538;2024-01-10T00:15:12;9.10;;;3.78;;
47715;SDS011;33476;50.984;3.538;2024-01-10T00:17:37;7.30;;;3.53;;
47715;SDS011;33476;50.984;3.538;2024-01-10T00:20:05;9.75;;;3.63;;
47715;SDS011;33476;50.984;3.538;2024-01-10T00:22:31;7.13;;;3.83;;
47715;SDS011;33476;50.984;3.538;2024-01-10T00:24:57;8.00;;;3.58;;
47715;SDS011;33476;50.984;3.538;2024-01-10T00:27:22;7.88;;;3.40;;
47715;SDS011;33476;50.984;3.538;2024-01-10T00:29:47;8.52;;;3.88;;
47715;SDS011;33476;50.984;3.538;2024-01-10T00:32:13;6.20;;;3.22;;
47715;SDS011;33476;50.984;3.538;2024-01-10T00:34:38;11.50;;;4.20;;
47715;SDS011;33476;50.984;3.538;2024-01-10T00:37:03;9.50;;;4.28;;
47715;SDS011;33476;50.984;3.538;2024-01-10T00:39:29;8.50;;;4.38;;
47715;SDS011;33476;50.984;3.538;2024-01-10T00:41:54;7.03;;;3.85;;
47715;SDS011;33476;50.984;3.538;2024-01-10T00:44:19;14.20;;;4.68;;
47715;SDS011;33476;50.984;3.538;2024-01-10T00:46:45;8.88;;;4.28;;
47715;SDS011;33476;50.984;3.538;2024-01-10T00:49:10;12.77;;;4.57;;
47715;SDS011;33476;50.984;3.538;2024-01-10T00:51:35;9.30;;;4.30;;
47715;SDS011;33476;50.984;3.538;2024-01-10T00:54:01;9.30;;;4.75;;
47715;SDS011;33476;50.984;3.538;2024-01-10T00:56:26;11.73;;;4.88;;
47715;SDS011;33476;50.984;3.538;2024-01-10T00:58:51;11.38;;;5.00;;
47715;SDS011;33476;50.984;3.538;2024-01-10T01:03:48;11.85;;;5.13;;
47715;SDS011;33476;50.984;3.538;2024-01-10T01:06:13;9.48;;;4.47;;
47715;SDS011;33476;50.984;3.538;2024-01-10T01:08:38;11.82;;;4.70;;
47715;SDS011;33476;50.984;3.538;2024-01-10T01:11:04;11.13;;;5.00;;
47715;SDS011;33476;50.984;3.538;2024-01-10T01:13:29;13.10;;;5.32;;
47715;SDS011;33476;50.984;3.538;2024-01-10T01:15:54;13.00;;;5.30;;
47715;SDS011;33476;50.984;3.538;2024-01-10T01:18:20;13.60;;;5.15;;
47715;SDS011;33476;50.984;3.538;2024-01-10T01:20:45;10.32;;;5.43;;
47715;SDS011;33476;50.984;3.538;2024-01-10T01:23:13;11.00;;;5.40;;
47715;SDS011;33476;50.984;3.538;2024-01-10T01:25:39;9.82;;;4.60;;
47715;SDS011;33476;50.984;3.538;2024-01-10T01:28:04;10.35;;;4.68;;
47715;SDS011;33476;50.984;3.538;2024-01-10T01:30:29;11.65;;;5.32;;
47715;SDS011;33476;50.984;3.538;2024-01-10T01:32:55;12.02;;;5.45;;
47715;SDS011;33476;50.984;3.538;2024-01-10T01:35:20;10.70;;;4.95;;
47715;SDS011;33476;50.984;3.538;2024-01-10T01:37:47;12.93;;;5.15;;
47715;SDS011;33476;50.984;3.538;2024-01-10T01:40:13;12.60;;;5.22;;
47715;SDS011;33476;50.984;3.538;2024-01-10T01:42:38;11.38;;;4.80;;
47715;SDS011;33476;50.984;3.538;2024-01-10T01:45:04;10.00;;;5.25;;
47715;SDS011;33476;50.984;3.538;2024-01-10T01:47:30;13.30;;;5.07;;
47715;SDS011;33476;50.984;3.538;2024-01-10T01:49:56;12.05;;;5.10;;
47715;SDS011;33476;50.984;3.538;2024-01-10T01:52:21;12.00;;;5.65;;
47715;SDS011;33476;50.984;3.538;2024-01-10T01:54:47;11.20;;;5.10;;
47715;SDS011;33476;50.984;3.538;2024-01-10T01:57:13;10.68;;;5.35;;
47715;SDS011;33476;50.984;3.538;2024-01-10T01:59:38;9.80;;;5.30;;
47715;SDS011;33476;50.984;3.538;2024-01-10T02:02:04;10.05;;;4.82;;
47715;SDS011;33476;50.984;3.538;2024-01-10T02:04:31;11.73;;;5.18;;
47715;SDS011;33476;50.984;3.538;2024-01-10T02:06:56;10.15;;;5.10;;
47715;SDS011;33476;50.984;3.538;2024-01-10T02:09:22;10.43;;;4.53;;
47715;SDS011;33476;50.984;3.538;2024-01-10T02:11:47;11.75;;;5.60;;
47715;SDS011;33476;50.984;3.538;2024-01-10T02:14:13;8.75;;;5.13;;
47715;SDS011;33476;50.984;3.538;2024-01-10T02:16:40;9.57;;;4.43;;
47715;SDS011;33476;50.984;3.538;2024-01-10T02:19:21;10.50;;;4.80;;
47715;SDS011;33476;50.984;3.538;2024-01-10T02:21:47;12.13;;;5.47;;
47715;SDS011;33476;50.984;3.538;2024-01-10T02:24:12;8.35;;;4.30;;
47715;SDS011;33476;50.984;3.538;2024-01-10T02:26:38;7.72;;;4.07;;
47715;SDS011;33476;50.984;3.538;2024-01-10T02:29:04;8.90;;;4.47;;
47715;SDS011;33476;50.984;3.538;2024-01-10T02:31:30;9.98;;;4.60;;
47715;SDS011;33476;50.984;3.538;2024-01-10T02:33:55;7.90;;;3.88;;
47715;SDS011;33476;50.984;3.538;2024-01-10T02:36:20;10.02;;;4.38;;
47715;SDS011;33476;50.984;3.538;2024-01-10T02:38:46;8.38;;;3.97;;
47715;SDS011;33476;50.984;3.538;2024-01-10T02:41:12;7.88;;;3.83;;
47715;SDS011;33476;50.984;3.538;2024-01-10T02:43:38;9.15;;;4.50;;
47715;SDS011;33476;50.984;3.538;2024-01-10T02:46:04;15.10;;;4.30;;
47715;SDS011;33476;50.984;3.538;2024-01-10T02:48:29;8.27;;;3.70;;
47715;SDS011;33476;50.984;3.538;2024-01-10T02:50:54;8.27;;;4.13;;
47715;SDS011;33476;50.984;3.538;2024-01-10T02:53:20;8.10;;;3.80;;
47715;SDS011;33476;50.984;3.538;2024-01-10T02:55:46;8.48;;;4.00;;
47715;SDS011;33476;50.984;3.538;2024-01-10T02:58:13;9.40;;;4.47;;
47715;SDS011;33476;50.984;3.538;2024-01-10T03:00:38;8.25;;;3.83;;
47715;SDS011;33476;50.984;3.538;2024-01-10T03:03:04;8.90;;;3.97;;
47715;SDS011;33476;50.984;3.538;2024-01-10T03:05:29;7.40;;;3.65;;
47715;SDS011;33476;50.984;3.538;2024-01-10T03:07:55;8.98;;;3.75;;
47715;SDS011;33476;50.984;3.538;2024-01-10T03:10:20;7.38;;;3.40;;
47715;SDS011;33476;50.984;3.538;2024-01-10T03:12:45;8.55;;;3.67;;
47715;SDS011;33476;50.984;3.538;2024-01-10T03:15:11;8.32;;;3.85;;
47715;SDS011;33476;50.984;3.538;2024-01-10T03:17:36;11.57;;;4.57;;
47715;SDS011;33476;50.984;3.538;2024-01-10T03:20:02;10.77;;;4.07;;
47715;SDS011;33476;50.984;3.538;2024-01-10T03:22:30;7.72;;;3.38;;
47715;SDS011;33476;50.984;3.538;2024-01-10T03:24:57;7.88;;;3.67;;
47715;SDS011;33476;50.984;3.538;2024-01-10T03:27:22;8.95;;;3.67;;
47715;SDS011;33476;50.984;3.538;2024-01-10T03:29:47;7.00;;;3.40;;
47715;SDS011;33476;50.984;3.538;2024-01-10T03:32:13;7.82;;;3.58;;
47715;SDS011;33476;50.984;3.538;2024-01-10T03:34:38;6.43;;;3.35;;
47715;SDS011;33476;50.984;3.538;2024-01-10T03:37:03;7.88;;;3.63;;
47715;SDS011;33476;50.984;3.538;2024-01-10T03:39:29;6.75;;;3.33;;
47715;SDS011;33476;50.984;3.538;2024-01-10T03:41:55;7.18;;;3.35;;
47715;SDS011;33476;50.984;3.538;2024-01-10T03:44:20;9.70;;;3.70;;
47715;SDS011;33476;50.984;3.538;2024-01-10T03:46:46;7.45;;;2.85;;
47715;SDS011;33476;50.984;3.538;2024-01-10T03:49:11;6.22;;;3.25;;
47715;SDS011;33476;50.984;3.538;2024-01-10T03:51:37;7.70;;;3.33;;
47715;SDS011;33476;50.984;3.538;2024-01-10T03:54:02;8.82;;;3.35;;
47715;SDS011;33476;50.984;3.538;2024-01-10T03:56:28;7.38;;;3.70;;
47715;SDS011;33476;50.984;3.538;2024-01-10T03:58:54;6.25;;;3.30;;
47715;SDS011;33476;50.984;3.538;2024-01-10T04:01:21;8.45;;;3.22;;
47715;SDS011;33476;50.984;3.538;2024-01-10T04:03:48;8.10;;;3.58;;
47715;SDS011;33476;50.984;3.538;2024-01-10T04:06:13;7.57;;;3.33;;
47715;SDS011;33476;50.984;3.538;2024-01-10T04:08:39;8.93;;;3.78;;
47715;SDS011;33476;50.984;3.538;2024-01-10T04:11:04;6.65;;;3.20;;
47715;SDS011;33476;50.984;3.538;2024-01-10T04:13:30;6.68;;;3.22;;
47715;SDS011;33476;50.984;3.538;2024-01-10T04:15:55;6.03;;;3.08;;
47715;SDS011;33476;50.984;3.538;2024-01-10T04:18:20;7.35;;;3.38;;
47715;SDS011;33476;50.984;3.538;2024-01-10T04:20:46;7.75;;;3.38;;
47715;SDS011;33476;50.984;3.538;2024-01-10T04:23:13;6.88;;;3.10;;
47715;SDS011;33476;50.984;3.538;2024-01-10T04:25:38;9.73;;;3.33;;
47715;SDS011;33476;50.984;3.538;2024-01-10T04:28:04;6.88;;;3.35;;
47715;SDS011;33476;50.984;3.538;2024-01-10T04:30:29;8.73;;;3.53;;
47715;SDS011;33476;50.984;3.538;2024-01-10T04:32:55;7.93;;;2.90;;
47715;SDS011;33476;50.984;3.538;2024-01-10T04:35:20;7.20;;;3.22;;
47715;SDS011;33476;50.984;3.538;2024-01-10T04:37:46;5.97;;;2.67;;
47715;SDS011;33476;50.984;3.538;2024-01-10T04:40:11;5.70;;;3.10;;
47715;SDS011;33476;50.984;3.538;2024-01-10T04:42:37;6.25;;;3.42;;
47715;SDS011;33476;50.984;3.538;2024-01-10T04:45:02;5.93;;;2.78;;
47715;SDS011;33476;50.984;3.538;2024-01-10T04:47:28;7.40;;;3.20;;
47715;SDS011;33476;50.984;3.538;2024-01-10T04:49:53;8.88;;;3.45;;
47715;SDS011;33476;50.984;3.538;2024-01-10T04:52:18;9.00;;;3.60;;
47715;SDS011;33476;50.984;3.538;2024-01-10T04:54:44;7.10;;;3.17;;
47715;SDS011;33476;50.984;3.538;2024-01-10T04:57:09;8.05;;;3.20;;
47715;SDS011;33476;50.984;3.538;2024-01-10T04:59:35;6.88;;;3.05;;
47715;SDS011;33476;50.984;3.538;2024-01-10T05:02:00;6.68;;;3.00;;
47715;SDS011;33476;50.984;3.538;2024-01-10T05:04:26;8.60;;;3.78;;
47715;SDS011;33476;50.984;3.538;2024-01-10T05:06:51;6.50;;;3.25;;
47715;SDS011;33476;50.984;3.538;2024-01-10T05:09:17;7.35;;;3.40;;
47715;SDS011;33476;50.984;3.538;2024-01-10T05:11:42;8.70;;;3.50;;
47715;SDS011;33476;50.984;3.538;2024-01-10T05:14:08;7.25;;;3.47;;
47715;SDS011;33476;50.984;3.538;2024-01-10T05:16:33;9.90;;;3.08;;
47715;SDS011;33476;50.984;3.538;2024-01-10T05:19:02;8.85;;;3.80;;
47715;SDS011;33476;50.984;3.538;2024-01-10T05:21:30;9.23;;;3.17;;
47715;SDS011;33476;50.984;3.538;2024-01-10T05:23:57;7.18;;;3.20;;
47715;SDS011;33476;50.984;3.538;2024-01-10T05:26:22;8.48;;;3.70;;
47715;SDS011;33476;50.984;3.538;2024-01-10T05:28:48;8.02;;;2.92;;
47715;SDS011;33476;50.984;3.538;2024-01-10T05:31:13;9.10;;;3.25;;
47715;SDS011;33476;50.984;3.538;2024-01-10T05:33:38;6.95;;;3.10;;
47715;SDS011;33476;50.984;3.538;2024-01-10T05:36:04;6.93;;;3.10;;
47715;SDS011;33476;50.984;3.538;2024-01-10T05:38:29;7.18;;;3.17;;
47715;SDS011;33476;50.984;3.538;2024-01-10T05:40:55;7.80;;;3.25;;
47715;SDS011;33476;50.984;3.538;2024-01-10T05:43:20;10.13;;;3.03;;
47715;SDS011;33476;50.984;3.538;2024-01-10T05:45:46;5.43;;;2.65;;
47715;SDS011;33476;50.984;3.538;2024-01-10T05:48:12;5.85;;;3.17;;
47715;SDS011;33476;50.984;3.538;2024-01-10T05:50:37;6.55;;;3.22;;
47715;SDS011;33476;50.984;3.538;2024-01-10T05:53:04;6.68;;;2.67;;
47715;SDS011;33476;50.984;3.538;2024-01-10T05:55:29;6.63;;;3.25;;
47715;SDS011;33476;50.984;3.538;2024-01-10T05:57:54;6.85;;;2.92;;
47715;SDS011;33476;50.984;3.538;2024-01-10T06:00:20;8.27;;;3.22;;
47715;SDS011;33476;50.984;3.538;2024-01-10T06:02:46;9.15;;;2.95;;
47715;SDS011;33476;50.984;3.538;2024-01-10T06:05:12;6.88;;;3.30;;
47715;SDS011;33476;50.984;3.538;2024-01-10T06:07:37;7.97;;;2.85;;
47715;SDS011;33476;50.984;3.538;2024-01-10T06:10:04;5.40;;;2.90;;
47715;SDS011;33476;50.984;3.538;2024-01-10T06:12:30;6.47;;;3.10;;
47715;SDS011;33476;50.984;3.538;2024-01-10T06:14:56;6.15;;;3.00;;
47715;SDS011;33476;50.984;3.538;2024-01-10T06:17:22;6.75;;;3.22;;
47715;SDS011;33476;50.984;3.538;2024-01-10T06:19:47;7.35;;;2.75;;
47715;SDS011;33476;50.984;3.538;2024-01-10T06:22:13;8.38;;;3.55;;
47715;SDS011;33476;50.984;3.538;2024-01-10T06:24:38;7.80;;;2.88;;
47715;SDS011;33476;50.984;3.538;2024-01-10T06:27:05;7.68;;;3.28;;
47715;SDS011;33476;50.984;3.538;2024-01-10T06:29:31;6.35;;;3.00;;
47715;SDS011;33476;50.984;3.538;2024-01-10T06:31:57;8.93;;;3.47;;
47715;SDS011;33476;50.984;3.538;2024-01-10T06:34:23;8.23;;;3.33;;
47715;SDS011;33476;50.984;3.538;2024-01-10T06:36:49;6.30;;;2.72;;
47715;SDS011;33476;50.984;3.538;2024-01-10T06:39:15;6.18;;;2.60;;
47715;SDS011;33476;50.984;3.538;2024-01-10T06:41:41;7.70;;;3.22;;
47715;SDS011;33476;50.984;3.538;2024-01-10T06:44:07;7.88;;;3.25;;
47715;SDS011;33476;50.984;3.538;2024-01-10T06:46:33;8.23;;;3.45;;
47715;SDS011;33476;50.984;3.538;2024-01-10T06:48:58;8.25;;;3.15;;
47715;SDS011;33476;50.984;3.538;2024-01-10T06:51:24;6.53;;;2.80;;
47715;SDS011;33476;50.984;3.538;2024-01-10T06:53:50;7.32;;;2.92;;
47715;SDS011;33476;50.984;3.538;2024-01-10T06:56:15;5.40;;;2.60;;
47715;SDS011;33476;50.984;3.538;2024-01-10T06:58:40;7.15;;;3.13;;
47715;SDS011;33476;50.984;3.538;2024-01-10T07:01:11;9.05;;;3.20;;
47715;SDS011;33476;50.984;3.538;2024-01-10T07:03:38;8.50;;;3.38;;
47715;SDS011;33476;50.984;3.538;2024-01-10T07:06:04;6.80;;;2.65;;
47715;SDS011;33476;50.984;3.538;2024-01-10T07:08:30;5.03;;;2.83;;
47715;SDS011;33476;50.984;3.538;2024-01-10T07:10:55;5.63;;;2.70;;
47715;SDS011;33476;50.984;3.538;2024-01-10T07:13:21;6.78;;;3.22;;
47715;SDS011;33476;50.984;3.538;2024-01-10T07:15:47;5.82;;;2.80;;
47715;SDS011;33476;50.984;3.538;2024-01-10T07:18:12;9.18;;;3.15;;
47715;SDS011;33476;50.984;3.538;2024-01-10T07:20:38;7.30;;;2.75;;
47715;SDS011;33476;50.984;3.538;2024-01-10T07:23:03;6.65;;;2.90;;
47715;SDS011;33476;50.984;3.538;2024-01-10T07:25:29;6.30;;;2.85;;
47715;SDS011;33476;50.984;3.538;2024-01-10T07:27:54;6.43;;;3.13;;
47715;SDS011;33476;50.984;3.538;2024-01-10T07:30:19;8.73;;;3.38;;
47715;SDS011;33476;50.984;3.538;2024-01-10T07:32:45;7.32;;;3.25;;
47715;SDS011;33476;50.984;3.538;2024-01-10T07:35:11;5.78;;;2.97;;
47715;SDS011;33476;50.984;3.538;2024-01-10T07:37:39;6.40;;;3.20;;
47715;SDS011;33476;50.984;3.538;2024-01-10T07:40:05;6.18;;;2.90;;
47715;SDS011;33476;50.984;3.538;2024-01-10T07:42:35;6.50;;;3.25;;
47715;SDS011;33476;50.984;3.538;2024-01-10T07:45:00;8.32;;;3.28;;
47715;SDS011;33476;50.984;3.538;2024-01-10T07:47:32;10.70;;;3.40;;
47715;SDS011;33476;50.984;3.538;2024-01-10T07:49:59;7.40;;;3.17;;
47715;SDS011;33476;50.984;3.538;2024-01-10T07:52:25;7.38;;;3.60;;
47715;SDS011;33476;50.984;3.538;2024-01-10T07:54:50;12.48;;;3.38;;
47715;SDS011;33476;50.984;3.538;2024-01-10T07:57:16;6.65;;;3.08;;
47715;SDS011;33476;50.984;3.538;2024-01-10T07:59:43;5.20;;;2.90;;
47715;SDS011;33476;50.984;3.538;2024-01-10T08:02:09;6.50;;;3.50;;
47715;SDS011;33476;50.984;3.538;2024-01-10T08:04:35;11.05;;;3.45;;
47715;SDS011;33476;50.984;3.538;2024-01-10T08:07:01;7.18;;;3.15;;
47715;SDS011;33476;50.984;3.538;2024-01-10T08:09:26;8.63;;;3.90;;
47715;SDS011;33476;50.984;3.538;2024-01-10T08:11:52;17.50;;;6.60;;
47715;SDS011;33476;50.984;3.538;2024-01-10T08:14:17;10.02;;;4.82;;
47715;SDS011;33476;50.984;3.538;2024-01-10T08:16:42;7.60;;;3.40;;
47715;SDS011;33476;50.984;3.538;2024-01-10T08:19:08;9.43;;;3.65;;
47715;SDS011;33476;50.984;3.538;2024-01-10T08:21:33;7.97;;;3.67;;
47715;SDS011;33476;50.984;3.538;2024-01-10T08:24:00;10.20;;;4.28;;
47715;SDS011;33476;50.984;3.538;2024-01-10T08:26:26;9.52;;;3.70;;
47715;SDS011;33476;50.984;3.538;2024-01-10T08:28:52;9.75;;;3.83;;
47715;SDS011;33476;50.984;3.538;2024-01-10T08:31:17;7.07;;;3.42;;
47715;SDS011;33476;50.984;3.538;2024-01-10T08:33:43;6.95;;;3.00;;
47715;SDS011;33476;50.984;3.538;2024-01-10T08:36:08;8.32;;;3.72;;
47715;SDS011;33476;50.984;3.538;2024-01-10T08:38:37;13.55;;;4.05;;
47715;SDS011;33476;50.984;3.538;2024-01-10T08:41:03;7.40;;;3.60;;
47715;SDS011;33476;50.984;3.538;2024-01-10T08:43:28;11.35;;;4.88;;
47715;SDS011;33476;50.984;3.538;2024-01-10T08:45:54;11.05;;;4.97;;
47715;SDS011;33476;50.984;3.538;2024-01-10T08:48:19;10.05;;;4.07;;
47715;SDS011;33476;50.984;3.538;2024-01-10T08:50:45;15.23;;;5.57;;
47715;SDS011;33476;50.984;3.538;2024-01-10T08:53:10;23.20;;;7.43;;
47715;SDS011;33476;50.984;3.538;2024-01-10T08:55:36;13.80;;;4.95;;
47715;SDS011;33476;50.984;3.538;2024-01-10T08:58:02;19.13;;;6.15;;
47715;SDS011;33476;50.984;3.538;2024-01-10T09:00:28;18.80;;;5.45;;
47715;SDS011;33476;50.984;3.538;2024-01-10T09:02:54;8.98;;;3.47;;
47715;SDS011;33476;50.984;3.538;2024-01-10T09:05:20;12.30;;;4.68;;
47715;SDS011;33476;50.984;3.538;2024-01-10T09:07:46;11.80;;;4.30;;
47715;SDS011;33476;50.984;3.538;2024-01-10T09:10:12;7.38;;;3.97;;
47715;SDS011;33476;50.984;3.538;2024-01-10T09:12:38;11.55;;;5.05;;
47715;SDS011;33476;50.984;3.538;2024-01-10T09:15:03;10.95;;;4.70;;
47715;SDS011;33476;50.984;3.538;2024-01-10T09:17:29;10.88;;;4.50;;
47715;SDS011;33476;50.984;3.538;2024-01-10T09:19:54;9.05;;;4.60;;
47715;SDS011;33476;50.984;3.538;2024-01-10T09:22:20;8.70;;;3.95;;
47715;SDS011;33476;50.984;3.538;2024-01-10T09:24:45;8.95;;;4.15;;
47715;SDS011;33476;50.984;3.538;2024-01-10T09:27:11;13.75;;;4.78;;
47715;SDS011;33476;50.984;3.538;2024-01-10T09:29:37;9.18;;;4.38;;
47715;SDS011;33476;50.984;3.538;2024-01-10T09:32:02;10.45;;;4.28;;
47715;SDS011;33476;50.984;3.538;2024-01-10T09:34:28;7.72;;;3.83;;
47715;SDS011;33476;50.984;3.538;2024-01-10T09:36:54;11.82;;;4.13;;
47715;SDS011;33476;50.984;3.538;2024-01-10T09:39:19;7.63;;;3.75;;
47715;SDS011;33476;50.984;3.538;2024-01-10T09:41:46;9.27;;;4.25;;
47715;SDS011;33476;50.984;3.538;2024-01-10T09:44:17;10.95;;;5.25;;
47715;SDS011;33476;50.984;3.538;2024-01-10T09:46:46;12.93;;;4.97;;
47715;SDS011;33476;50.984;3.538;2024-01-10T09:49:16;13.60;;;4.07;;
47715;SDS011;33476;50.984;3.538;2024-01-10T09:51:42;10.65;;;4.95;;
47715;SDS011;33476;50.984;3.538;2024-01-10T09:54:07;14.60;;;6.43;;
47715;SDS011;33476;50.984;3.538;2024-01-10T09:56:33;11.27;;;4.70;;
47715;SDS011;33476;50.984;3.538;2024-01-10T09:58:58;12.95;;;5.22;;
47715;SDS011;33476;50.984;3.538;2024-01-10T10:01:26;11.85;;;5.40;;
47715;SDS011;33476;50.984;3.538;2024-01-10T10:03:52;11.50;;;4.85;;
47715;SDS011;33476;50.984;3.538;2024-01-10T10:06:20;9.25;;;4.70;;
47715;SDS011;33476;50.984;3.538;2024-01-10T10:08:45;12.65;;;5.82;;
47715;SDS011;33476;50.984;3.538;2024-01-10T10:11:11;8.95;;;3.88;;
47715;SDS011;33476;50.984;3.538;2024-01-10T10:13:39;13.40;;;4.30;;
47715;SDS011;33476;50.984;3.538;2024-01-10T10:16:07;9.00;;;4.30;;
47715;SDS011;33476;50.984;3.538;2024-01-10T10:18:35;10.52;;;4.60;;
47715;SDS011;33476;50.984;3.538;2024-01-10T10:21:07;7.63;;;4.10;;
47715;SDS011;33476;50.984;3.538;2024-01-10T10:23:37;12.70;;;5.47;;
47715;SDS011;33476;50.984;3.538;2024-01-10T10:26:10;12.05;;;5.35;;
47715;SDS011;33476;50.984;3.538;2024-01-10T10:28:40;10.00;;;4.30;;
47715;SDS011;33476;50.984;3.538;2024-01-10T10:31:06;9.82;;;4.30;;
47715;SDS011;33476;50.984;3.538;2024-01-10T10:33:34;13.30;;;5.95;;
47715;SDS011;33476;50.984;3.538;2024-01-10T10:36:01;17.15;;;7.07;;
47715;SDS011;33476;50.984;3.538;2024-01-10T10:38:26;15.80;;;7.20;;
47715;SDS011;33476;50.984;3.538;2024-01-10T10:40:51;12.35;;;5.63;;
47715;SDS011;33476;50.984;3.538;2024-01-10T10:43:18;17.23;;;7.13;;
47715;SDS011;33476;50.984;3.538;2024-01-10T10:45:47;11.45;;;5.78;;
47715;SDS011;33476;50.984;3.538;2024-01-10T10:48:17;13.05;;;5.60;;
47715;SDS011;33476;50.984;3.538;2024-01-10T10:51:32;10.38;;;4.95;;
47715;SDS011;33476;50.984;3.538;2024-01-10T10:53:37;12.60;;;4.90;;
47715;SDS011;33476;50.984;3.538;2024-01-10T10:56:06;17.27;;;5.10;;
47715;SDS011;33476;50.984;3.538;2024-01-10T10:58:39;16.92;;;7.13;;
47715;SDS011;33476;50.984;3.538;2024-01-10T11:01:12;11.55;;;4.82;;
47715;SDS011;33476;50.984;3.538;2024-01-10T11:03:39;9.38;;;4.65;;
47715;SDS011;33476;50.984;3.538;2024-01-10T11:06:05;10.32;;;4.40;;
47715;SDS011;33476;50.984;3.538;2024-01-10T11:08:42;12.05;;;4.70;;
47715;SDS011;33476;50.984;3.538;2024-01-10T11:11:37;8.85;;;3.80;;
47715;SDS011;33476;50.984;3.538;2024-01-10T11:17:14;13.98;;;5.30;;
47715;SDS011;33476;50.984;3.538;2024-01-10T11:20:14;15.52;;;4.95;;
47715;SDS011;33476;50.984;3.538;2024-01-10T11:25:29;9.77;;;4.97;;
47715;SDS011;33476;50.984;3.538;2024-01-10T11:27:55;10.43;;;4.43;;
47715;SDS011;33476;50.984;3.538;2024-01-10T11:30:34;11.40;;;5.10;;
47715;SDS011;33476;50.984;3.538;2024-01-10T11:33:21;11.90;;;5.43;;
47715;SDS011;33476;50.984;3.538;2024-01-10T11:38:39;7.97;;;4.80;;
47715;SDS011;33476;50.984;3.538;2024-01-10T11:41:20;9.38;;;4.78;;
47715;SDS011;33476;50.984;3.538;2024-01-10T11:46:34;12.10;;;4.85;;
47715;SDS011;33476;50.984;3.538;2024-01-10T11:48:59;8.35;;;4.40;;
47715;SDS011;33476;50.984;3.538;2024-01-10T11:51:25;10.77;;;4.93;;
47715;SDS011;33476;50.984;3.538;2024-01-10T11:53:50;9.68;;;4.90;;
47715;SDS011;33476;50.984;3.538;2024-01-10T11:56:18;9.35;;;4.63;;
47715;SDS011;33476;50.984;3.538;2024-01-10T11:58:53;10.48;;;4.97;;
47715;SDS011;33476;50.984;3.538;2024-01-10T12:01:21;8.70;;;4.32;;
47715;SDS011;33476;50.984;3.538;2024-01-10T12:03:49;11.13;;;5.13;;
47715;SDS011;33476;50.984;3.538;2024-01-10T12:06:19;9.45;;;4.80;;
47715;SDS011;33476;50.984;3.538;2024-01-10T12:08:46;8.30;;;4.10;;
47715;SDS011;33476;50.984;3.538;2024-01-10T12:11:12;13.95;;;4.57;;
47715;SDS011;33476;50.984;3.538;2024-01-10T12:13:37;9.50;;;4.85;;
47715;SDS011;33476;50.984;3.538;2024-01-10T12:16:03;7.38;;;4.15;;
47715;SDS011;33476;50.984;3.538;2024-01-10T12:18:29;10.32;;;4.75;;
47715;SDS011;33476;50.984;3.538;2024-01-10T12:20:55;9.95;;;4.28;;
47715;SDS011;33476;50.984;3.538;2024-01-10T12:23:20;10.10;;;4.75;;
47715;SDS011;33476;50.984;3.538;2024-01-10T12:25:46;11.85;;;5.00;;
47715;SDS011;33476;50.984;3.538;2024-01-10T12:28:16;11.02;;;4.82;;
47715;SDS011;33476;50.984;3.538;2024-01-10T12:30:42;13.75;;;5.28;;
47715;SDS011;33476;50.984;3.538;2024-01-10T12:33:10;12.40;;;5.20;;
47715;SDS011;33476;50.984;3.538;2024-01-10T12:35:35;11.95;;;5.22;;
47715;SDS011;33476;50.984;3.538;2024-01-10T12:38:02;9.48;;;4.90;;
47715;SDS011;33476;50.984;3.538;2024-01-10T12:40:28;10.63;;;4.97;;
47715;SDS011;33476;50.984;3.538;2024-01-10T12:43:03;14.52;;;5.47;;
47715;SDS011;33476;50.984;3.538;2024-01-10T12:45:29;9.20;;;5.13;;
47715;SDS011;33476;50.984;3.538;2024-01-10T12:47:54;13.48;;;5.25;;
47715;SDS011;33476;50.984;3.538;2024-01-10T12:50:20;9.95;;;4.88;;
47715;SDS011;33476;50.984;3.538;2024-01-10T12:52:45;10.40;;;5.18;;
47715;SDS011;33476;50.984;3.538;2024-01-10T12:55:11;10.88;;;5.13;;
47715;SDS011;33476;50.984;3.538;2024-01-10T12:57:37;11.45;;;5.28;;
47715;SDS011;33476;50.984;3.538;2024-01-10T13:00:03;12.27;;;4.75;;
47715;SDS011;33476;50.984;3.538;2024-01-10T13:02:32;14.20;;;5.78;;
47715;SDS011;33476;50.984;3.538;2024-01-10T13:05:02;19.13;;;7.03;;
47715;SDS011;33476;50.984;3.538;2024-01-10T13:07:28;24.00;;;8.70;;
47715;SDS011;33476;50.984;3.538;2024-01-10T13:09:56;17.00;;;5.88;;
47715;SDS011;33476;50.984;3.538;2024-01-10T13:12:21;23.25;;;8.48;;
47715;SDS011;33476;50.984;3.538;2024-01-10T13:14:47;24.27;;;8.10;;
47715;SDS011;33476;50.984;3.538;2024-01-10T13:17:12;13.73;;;6.18;;
47715;SDS011;33476;50.984;3.538;2024-01-10T13:19:37;16.48;;;6.90;;
47715;SDS011;33476;50.984;3.538;2024-01-10T13:22:03;17.83;;;6.90;;
47715;SDS011;33476;50.984;3.538;2024-01-10T13:24:29;12.98;;;5.60;;
47715;SDS011;33476;50.984;3.538;2024-01-10T13:26:54;15.50;;;6.20;;
47715;SDS011;33476;50.984;3.538;2024-01-10T13:29:20;17.38;;;7.05;;
47715;SDS011;33476;50.984;3.538;2024-01-10T13:31:46;21.40;;;7.93;;
47715;SDS011;33476;50.984;3.538;2024-01-10T13:34:14;14.23;;;6.75;;
47715;SDS011;33476;50.984;3.538;2024-01-10T13:36:39;14.50;;;6.20;;
47715;SDS011;33476;50.984;3.538;2024-01-10T13:39:05;16.63;;;7.20;;
47715;SDS011;33476;50.984;3.538;2024-01-10T13:41:30;16.75;;;7.13;;
47715;SDS011;33476;50.984;3.538;2024-01-10T13:43:56;15.82;;;6.93;;
47715;SDS011;33476;50.984;3.538;2024-01-10T13:46:21;15.73;;;7.00;;
47715;SDS011;33476;50.984;3.538;2024-01-10T13:48:47;19.58;;;7.90;;
47715;SDS011;33476;50.984;3.538;2024-01-10T13:51:12;22.33;;;7.70;;
47715;SDS011;33476;50.984;3.538;2024-01-10T13:53:37;17.35;;;7.25;;
47715;SDS011;33476;50.984;3.538;2024-01-10T13:56:03;20.73;;;9.20;;
47715;SDS011;33476;50.984;3.538;2024-01-10T13:58:28;15.40;;;7.03;;
47715;SDS011;33476;50.984;3.538;2024-01-10T14:00:54;15.77;;;5.95;;
47715;SDS011;33476;50.984;3.538;2024-01-10T14:03:19;19.75;;;8.18;;
47715;SDS011;33476;50.984;3.538;2024-01-10T14:05:44;13.95;;;6.57;;
47715;SDS011;33476;50.984;3.538;2024-01-10T14:08:10;19.63;;;7.97;;
47715;SDS011;33476;50.984;3.538;2024-01-10T14:10:36;19.20;;;7.60;;
47715;SDS011;33476;50.984;3.538;2024-01-10T14:13:01;20.77;;;6.60;;
47715;SDS011;33476;50.984;3.538;2024-01-10T14:15:28;13.43;;;5.85;;
47715;SDS011;33476;50.984;3.538;2024-01-10T14:17:54;27.17;;;8.77;;
47715;SDS011;33476;50.984;3.538;2024-01-10T14:20:21;13.10;;;5.65;;
47715;SDS011;33476;50.984;3.538;2024-01-10T14:22:47;19.58;;;6.38;;
47715;SDS011;33476;50.984;3.538;2024-01-10T14:25:12;24.08;;;6.93;;
47715;SDS011;33476;50.984;3.538;2024-01-10T14:27:38;30.83;;;7.63;;
47715;SDS011;33476;50.984;3.538;2024-01-10T14:30:05;16.10;;;5.82;;
47715;SDS011;33476;50.984;3.538;2024-01-10T14:32:33;11.05;;;5.75;;
47715;SDS011;33476;50.984;3.538;2024-01-10T14:34:59;10.88;;;4.97;;
47715;SDS011;33476;50.984;3.538;2024-01-10T14:37:24;13.20;;;5.30;;
47715;SDS011;33476;50.984;3.538;2024-01-10T14:39:50;11.52;;;5.55;;
47715;SDS011;33476;50.984;3.538;2024-01-10T14:42:16;12.98;;;5.70;;
47715;SDS011;33476;50.984;3.538;2024-01-10T14:44:42;14.40;;;5.70;;
47715;SDS011;33476;50.984;3.538;2024-01-10T14:47:08;14.30;;;5.70;;
47715;SDS011;33476;50.984;3.538;2024-01-10T14:49:33;12.65;;;5.22;;